createdAt,value
2023-04-29T00:02:08.613Z,4.15
2023-04-29T00:04:36.066Z,4.50
2023-04-29T00:07:03.316Z,4.93
2023-04-29T00:09:30.458Z,7.05
2023-04-29T00:11:57.565Z,5.18
2023-04-29T00:14:24.943Z,5.05
2023-04-29T00:16:52.084Z,4.82
2023-04-29T00:19:23.665Z,6.40
2023-04-29T00:21:50.759Z,7.47
2023-04-29T00:24:20.079Z,4.57
2023-04-29T00:26:47.385Z,6.20
2023-04-29T00:29:14.444Z,5.50
2023-04-29T00:31:43.810Z,5.68
2023-04-29T00:34:13.148Z,5.68
2023-04-29T00:36:42.832Z,7.25
2023-04-29T00:39:15.250Z,8.30
2023-04-29T00:41:42.728Z,7.53
2023-04-29T00:44:12.449Z,8.10
2023-04-29T00:49:06.629Z,8.45
2023-04-29T00:51:36.214Z,9.20
2023-04-29T00:54:04.026Z,7.70
2023-04-29T00:56:32.394Z,7.47
2023-04-29T00:58:59.925Z,9.07
2023-04-29T01:01:27.253Z,9.93
2023-04-29T01:03:54.983Z,8.68
2023-04-29T01:06:22.395Z,9.82
2023-04-29T01:09:08.293Z,8.75
2023-04-29T01:11:50.725Z,8.70
2023-04-29T01:14:20.072Z,9.93
2023-04-29T01:16:53.892Z,10.88
2023-04-29T01:19:20.985Z,12.00
2023-04-29T01:21:48.976Z,7.78
2023-04-29T01:24:16.788Z,7.93
2023-04-29T01:26:47.409Z,8.98
2023-04-29T01:29:27.290Z,7.75
2023-04-29T01:32:05.036Z,8.23
2023-04-29T01:34:40.442Z,8.57
2023-04-29T01:37:30.334Z,7.53
2023-04-29T01:40:20.860Z,9.75
2023-04-29T01:42:58.484Z,6.90
2023-04-29T01:45:27.221Z,7.50
2023-04-29T01:47:56.204Z,7.35
2023-04-29T01:50:25.861Z,6.95
2023-04-29T01:52:55.433Z,6.50
2023-04-29T01:55:25.639Z,9.57
2023-04-29T01:57:52.738Z,9.80
2023-04-29T02:00:19.911Z,7.65
2023-04-29T02:02:47.036Z,8.63
2023-04-29T02:05:14.152Z,6.05
2023-04-29T02:07:42.417Z,7.25
2023-04-29T02:10:09.708Z,10.82
2023-04-29T02:12:36.869Z,7.88
2023-04-29T02:15:04.051Z,7.13
2023-04-29T02:17:31.219Z,7.20
2023-04-29T02:20:03.403Z,6.60
2023-04-29T02:22:30.525Z,6.97
2023-04-29T02:25:00.187Z,7.07
2023-04-29T02:27:27.303Z,6.32
2023-04-29T02:29:54.491Z,7.93
2023-04-29T02:32:24.063Z,7.05
2023-04-29T02:34:51.758Z,7.82
2023-04-29T02:37:18.843Z,6.75
2023-04-29T02:39:48.582Z,7.93
2023-04-29T02:42:15.647Z,8.30
2023-04-29T02:44:42.714Z,12.50
2023-04-29T02:47:12.275Z,11.88
2023-04-29T02:49:39.386Z,11.85
2023-04-29T02:52:06.473Z,12.73
2023-04-29T02:54:33.512Z,12.82
2023-04-29T02:57:00.555Z,15.52
2023-04-29T02:59:27.768Z,15.27
2023-04-29T03:01:54.879Z,16.45
2023-04-29T03:04:22.240Z,16.20
2023-04-29T03:06:52.146Z,12.90
2023-04-29T03:11:46.294Z,11.63
2023-04-29T03:14:13.380Z,15.02
2023-04-29T03:16:40.523Z,16.38
2023-04-29T03:19:07.648Z,17.35
2023-04-29T03:21:34.716Z,17.33
2023-04-29T03:24:01.804Z,14.77
2023-04-29T03:26:28.888Z,16.52
2023-04-29T03:28:55.953Z,15.75
2023-04-29T03:31:27.209Z,20.85
2023-04-29T03:33:54.377Z,14.60
2023-04-29T03:36:21.478Z,18.38
2023-04-29T03:38:48.551Z,17.23
2023-04-29T03:41:15.699Z,17.80
2023-04-29T03:43:44.136Z,17.63
2023-04-29T03:46:13.591Z,16.33
2023-04-29T03:48:42.954Z,16.08
2023-04-29T03:51:10.837Z,16.67
2023-04-29T03:53:37.941Z,23.95
2023-04-29T03:56:05.199Z,16.92
2023-04-29T03:58:32.375Z,18.65
2023-04-29T04:00:59.414Z,21.48
2023-04-29T04:03:28.215Z,20.52
2023-04-29T04:05:55.370Z,19.30
2023-04-29T04:08:22.676Z,21.17
2023-04-29T04:10:52.068Z,19.02
2023-04-29T04:13:19.126Z,19.67
2023-04-29T04:15:52.226Z,21.45
2023-04-29T04:18:19.401Z,24.13
2023-04-29T04:20:47.129Z,21.38
2023-04-29T04:23:14.472Z,24.88
2023-04-29T04:25:48.440Z,25.33
2023-04-29T04:28:18.040Z,27.75
2023-04-29T04:30:46.957Z,22.58
2023-04-29T04:33:14.255Z,25.63
2023-04-29T04:35:41.333Z,28.25
2023-04-29T04:38:09.205Z,32.22
2023-04-29T04:40:37.610Z,28.73
2023-04-29T04:43:04.801Z,28.98
2023-04-29T04:45:32.002Z,27.20
2023-04-29T04:47:59.176Z,27.13
2023-04-29T04:50:29.132Z,33.17
2023-04-29T04:55:26.278Z,37.25
2023-04-29T04:57:53.360Z,35.75
2023-04-29T05:00:20.764Z,38.45
2023-04-29T05:02:47.964Z,40.47
2023-04-29T05:05:15.103Z,39.20
2023-04-29T05:07:44.450Z,45.25
2023-04-29T05:10:14.475Z,40.20
2023-04-29T05:12:41.579Z,40.67
2023-04-29T05:15:09.022Z,40.17
2023-04-29T05:17:36.527Z,35.17
2023-04-29T05:20:03.920Z,37.92
2023-04-29T05:22:31.032Z,36.08
2023-04-29T05:25:02.875Z,39.08
2023-04-29T05:27:30.283Z,35.08
2023-04-29T05:29:57.402Z,33.75
2023-04-29T05:32:27.077Z,40.08
2023-04-29T05:34:54.189Z,32.67
2023-04-29T05:37:20.855Z,32.75
2023-04-29T05:39:50.082Z,31.27
2023-04-29T05:42:16.798Z,36.95
2023-04-29T05:44:45.870Z,34.30
2023-04-29T05:47:12.545Z,33.10
2023-04-29T05:49:42.081Z,34.08
2023-04-29T05:52:09.241Z,31.73
2023-04-29T05:54:36.367Z,34.03
2023-04-29T05:57:03.971Z,32.83
2023-04-29T05:59:31.682Z,35.13
2023-04-29T06:01:58.974Z,29.30
2023-04-29T06:04:27.086Z,31.40
2023-04-29T06:06:57.738Z,28.52
2023-04-29T06:09:28.480Z,34.08
2023-04-29T06:11:56.177Z,33.72
2023-04-29T06:14:23.371Z,29.90
2023-04-29T06:16:50.592Z,29.08
2023-04-29T06:19:17.680Z,29.58
2023-04-29T06:21:44.840Z,26.98
2023-04-29T06:24:11.924Z,26.95
2023-04-29T06:26:41.252Z,28.05
2023-04-29T06:29:09.271Z,24.77
2023-04-29T06:31:36.377Z,25.08
2023-04-29T06:34:03.565Z,25.83
2023-04-29T06:36:30.683Z,22.95
2023-04-29T06:39:00.270Z,24.23
2023-04-29T06:41:28.110Z,25.23
2023-04-29T06:43:55.334Z,19.40
2023-04-29T06:46:22.465Z,24.17
2023-04-29T06:48:51.813Z,20.30
2023-04-29T06:51:18.929Z,21.98
2023-04-29T06:53:46.831Z,24.08
2023-04-29T06:56:15.564Z,23.67
2023-04-29T06:58:44.017Z,30.42
2023-04-29T07:01:11.229Z,19.85
2023-04-29T07:03:38.493Z,21.52
2023-04-29T07:06:06.327Z,20.08
2023-04-29T07:08:33.606Z,19.08
2023-04-29T07:11:03.047Z,18.83
2023-04-29T07:13:30.254Z,18.85
2023-04-29T07:15:57.371Z,20.92
2023-04-29T07:18:24.568Z,18.88
2023-04-29T07:20:52.898Z,18.95
2023-04-29T07:23:20.631Z,20.13
2023-04-29T07:25:47.798Z,15.90
2023-04-29T07:28:14.926Z,13.65
2023-04-29T07:30:44.524Z,15.63
2023-04-29T07:33:11.643Z,13.27
2023-04-29T07:35:38.811Z,12.85
2023-04-29T07:38:05.911Z,13.73
2023-04-29T07:40:32.974Z,14.35
2023-04-29T07:43:04.674Z,15.30
2023-04-29T07:45:34.106Z,14.10
2023-04-29T07:48:01.568Z,14.98
2023-04-29T07:50:28.713Z,14.60
2023-04-29T07:52:57.767Z,13.13
2023-04-29T07:55:27.047Z,12.33
2023-04-29T07:57:57.013Z,15.27
2023-04-29T08:00:25.408Z,14.55
2023-04-29T08:02:56.283Z,12.38
2023-04-29T08:05:24.358Z,14.65
2023-04-29T08:07:52.026Z,11.75
2023-04-29T08:10:19.683Z,13.27
2023-04-29T08:12:47.063Z,11.48
2023-04-29T08:15:14.168Z,14.20
2023-04-29T08:17:41.358Z,13.65
2023-04-29T08:20:09.397Z,12.20
2023-04-29T08:22:38.836Z,16.42
2023-04-29T08:25:06.139Z,17.00
2023-04-29T08:27:33.251Z,15.45
2023-04-29T08:30:00.380Z,12.13
2023-04-29T08:32:27.584Z,13.52
2023-04-29T08:34:54.943Z,16.75
2023-04-29T08:37:22.392Z,14.48
2023-04-29T08:39:49.590Z,15.20
2023-04-29T08:42:17.954Z,13.57
2023-04-29T08:44:47.484Z,15.98
2023-04-29T08:47:15.122Z,12.63
2023-04-29T08:49:42.581Z,11.98
2023-04-29T08:52:12.246Z,13.50
2023-04-29T08:54:41.945Z,11.95
2023-04-29T08:57:11.459Z,11.57
2023-04-29T08:59:38.805Z,12.23
2023-04-29T09:02:07.620Z,11.68
2023-04-29T09:04:56.527Z,11.68
2023-04-29T09:07:24.479Z,15.15
2023-04-29T09:09:52.124Z,12.25
2023-04-29T09:12:22.366Z,14.13
2023-04-29T09:14:49.427Z,15.20
2023-04-29T09:17:16.593Z,13.43
2023-04-29T09:19:47.552Z,12.07
2023-04-29T09:22:14.718Z,9.85
2023-04-29T09:24:43.680Z,11.00
2023-04-29T09:27:11.187Z,13.73
2023-04-29T09:29:40.852Z,12.52
2023-04-29T09:32:21.448Z,10.68
2023-04-29T09:34:48.724Z,11.13
2023-04-29T09:37:26.330Z,11.70
2023-04-29T09:39:53.425Z,11.75
2023-04-29T09:42:20.540Z,18.17
2023-04-29T09:44:49.877Z,13.85
2023-04-29T09:47:17.236Z,9.40
2023-04-29T09:49:49.969Z,12.38
2023-04-29T09:52:18.255Z,12.68
2023-04-29T09:54:47.750Z,14.77
2023-04-29T09:57:19.124Z,12.35
2023-04-29T09:59:46.301Z,11.68
2023-04-29T10:02:20.744Z,16.15
2023-04-29T10:04:49.008Z,12.45
2023-04-29T10:07:19.129Z,12.13
2023-04-29T10:09:50.552Z,12.60
2023-04-29T10:12:18.598Z,12.05
2023-04-29T10:14:51.464Z,12.73
2023-04-29T10:17:21.385Z,13.93
2023-04-29T10:19:55.877Z,13.73
2023-04-29T10:22:43.185Z,12.65
2023-04-29T10:25:12.112Z,15.98
2023-04-29T10:27:40.169Z,13.07
2023-04-29T10:30:08.880Z,12.10
2023-04-29T10:32:49.805Z,12.57
2023-04-29T10:35:20.249Z,15.32
2023-04-29T10:37:50.037Z,12.38
2023-04-29T10:40:21.200Z,15.90
2023-04-29T10:42:48.380Z,16.10
2023-04-29T10:45:21.358Z,17.75
2023-04-29T10:48:06.426Z,17.90
2023-04-29T10:50:35.047Z,15.68
2023-04-29T10:53:05.688Z,18.15
2023-04-29T10:55:36.715Z,17.08
2023-04-29T10:58:04.655Z,19.63
2023-04-29T11:00:35.666Z,18.00
2023-04-29T11:03:03.362Z,17.27
2023-04-29T11:05:37.265Z,18.10
2023-04-29T11:08:39.750Z,17.67
2023-04-29T11:11:07.089Z,18.85
2023-04-29T11:13:38.468Z,19.83
2023-04-29T11:16:09.059Z,18.52
2023-04-29T11:18:36.974Z,20.83
2023-04-29T11:21:06.859Z,19.20
2023-04-29T11:26:01.768Z,16.20
2023-04-29T11:28:29.174Z,17.65
2023-04-29T11:30:57.434Z,19.65
2023-04-29T11:33:25.256Z,21.08
2023-04-29T11:35:54.969Z,22.15
2023-04-29T11:38:29.217Z,23.67
2023-04-29T11:40:56.884Z,21.83
2023-04-29T11:43:24.718Z,22.25
2023-04-29T11:45:52.737Z,27.25
2023-04-29T11:48:20.436Z,24.92
2023-04-29T11:50:48.652Z,28.20
2023-04-29T11:53:18.955Z,25.80
2023-04-29T11:55:46.437Z,25.40
2023-04-29T11:58:15.729Z,24.35
2023-04-29T12:00:42.898Z,24.58
2023-04-29T12:03:19.241Z,26.42
2023-04-29T12:05:49.428Z,26.30
2023-04-29T12:08:19.997Z,29.42
2023-04-29T12:10:47.914Z,25.58
2023-04-29T12:13:15.496Z,26.30
2023-04-29T12:15:43.095Z,24.33
2023-04-29T12:18:12.902Z,21.95
2023-04-29T12:23:13.349Z,19.55
2023-04-29T12:25:43.778Z,17.30
2023-04-29T12:28:14.240Z,21.33
2023-04-29T12:30:41.620Z,19.02
2023-04-29T12:33:09.897Z,18.58
2023-04-29T12:35:39.892Z,22.45
2023-04-29T12:38:06.997Z,25.75
2023-04-29T12:40:34.056Z,23.98
2023-04-29T12:43:08.489Z,33.67
2023-04-29T12:45:36.300Z,30.63
2023-04-29T12:48:08.753Z,34.70
2023-04-29T12:50:39.803Z,37.40
2023-04-29T12:53:07.552Z,42.72
2023-04-29T12:55:38.192Z,43.80
2023-04-29T12:58:05.845Z,43.15
2023-04-29T13:00:35.008Z,46.60
2023-04-29T13:03:02.492Z,51.63
2023-04-29T13:05:29.708Z,49.75
2023-04-29T13:07:56.928Z,46.88
2023-04-29T13:10:24.065Z,52.83
2023-04-29T13:12:53.665Z,48.88
2023-04-29T13:15:21.537Z,51.38
2023-04-29T13:17:48.674Z,46.80
2023-04-29T13:20:15.847Z,51.22
2023-04-29T13:22:44.367Z,53.70
2023-04-29T13:25:12.373Z,46.05
2023-04-29T13:27:39.855Z,48.63
2023-04-29T13:30:07.530Z,55.38
2023-04-29T13:32:43.985Z,50.97
2023-04-29T13:35:13.557Z,49.53
2023-04-29T13:37:40.653Z,53.30
2023-04-29T13:42:48.952Z,47.58
2023-04-29T13:45:17.686Z,46.92
2023-04-29T13:48:02.604Z,49.38
2023-04-29T13:53:35.543Z,41.38
2023-04-29T14:03:19.697Z,35.70
2023-04-29T14:05:47.407Z,32.45
2023-04-29T14:08:16.915Z,34.72
2023-04-29T14:10:44.048Z,34.25
2023-04-29T14:13:13.660Z,33.42
2023-04-29T14:15:41.174Z,31.17
2023-04-29T14:18:09.499Z,39.47
2023-04-29T14:20:36.874Z,35.03
2023-04-29T14:23:04.141Z,33.80
2023-04-29T14:25:33.796Z,31.75
2023-04-29T14:28:03.988Z,36.42
2023-04-29T14:30:31.092Z,38.15
2023-04-29T14:32:57.836Z,34.00
2023-04-29T14:35:24.623Z,31.92
2023-04-29T14:37:51.483Z,29.45
2023-04-29T14:40:18.182Z,36.80
2023-04-29T14:42:47.026Z,29.90
2023-04-29T14:45:17.096Z,29.73
2023-04-29T14:47:46.751Z,27.35
2023-04-29T14:50:13.533Z,35.67
2023-04-29T14:52:40.313Z,32.00
2023-04-29T14:55:09.705Z,33.25
2023-04-29T14:57:36.396Z,32.58
2023-04-29T15:00:03.738Z,28.17
2023-04-29T15:02:30.900Z,30.35
2023-04-29T15:04:59.719Z,26.90
2023-04-29T15:07:31.129Z,28.25
2023-04-29T15:09:58.514Z,26.33
2023-04-29T15:12:25.195Z,25.85
2023-04-29T15:14:53.595Z,24.10
2023-04-29T15:17:20.727Z,26.35
2023-04-29T15:19:49.949Z,30.27
2023-04-29T15:22:16.615Z,33.05
2023-04-29T15:24:43.362Z,33.65
2023-04-29T15:27:10.088Z,28.77
2023-04-29T15:29:39.064Z,30.50
2023-04-29T15:32:06.142Z,28.80
2023-04-29T15:34:35.147Z,30.85
2023-04-29T15:37:04.205Z,23.10
2023-04-29T15:39:30.875Z,22.93
2023-04-29T15:41:58.860Z,29.40
2023-04-29T15:44:25.616Z,27.63
2023-04-29T15:46:52.899Z,21.20
2023-04-29T15:49:19.610Z,19.88
2023-04-29T15:51:46.276Z,22.08
2023-04-29T15:54:13.070Z,22.90
2023-04-29T15:56:39.857Z,20.42
2023-04-29T15:59:06.523Z,19.40
2023-04-29T16:01:34.414Z,23.27
2023-04-29T16:06:30.065Z,19.92
2023-04-29T16:08:56.789Z,19.63
2023-04-29T16:11:23.519Z,19.73
2023-04-29T16:13:52.416Z,20.83
2023-04-29T16:16:19.183Z,20.27
2023-04-29T16:18:45.926Z,23.13
2023-04-29T16:21:14.826Z,18.45
2023-04-29T16:23:41.520Z,20.17
2023-04-29T16:26:08.259Z,24.73
2023-04-29T16:28:37.381Z,21.60
2023-04-29T16:31:04.319Z,23.33
2023-04-29T16:33:33.319Z,23.98
2023-04-29T16:36:00.345Z,22.87
2023-04-29T16:38:31.065Z,24.50
2023-04-29T16:41:04.170Z,21.67
2023-04-29T16:43:31.071Z,24.10
2023-04-29T16:45:58.502Z,29.88
2023-04-29T16:48:25.293Z,23.33
2023-04-29T16:50:52.393Z,22.70
2023-04-29T16:53:19.217Z,23.83
2023-04-29T16:55:46.403Z,25.60
2023-04-29T16:58:13.159Z,25.20
2023-04-29T17:00:40.065Z,30.42
2023-04-29T17:03:06.963Z,25.00
2023-04-29T17:05:33.899Z,30.45
2023-04-29T17:08:00.657Z,24.10
2023-04-29T17:10:27.598Z,23.17
2023-04-29T17:12:54.684Z,24.30
2023-04-29T17:15:21.340Z,25.73
2023-04-29T17:17:48.299Z,25.00
2023-04-29T17:20:15.012Z,21.75
2023-04-29T17:22:41.886Z,23.55
2023-04-29T17:25:14.757Z,28.17
2023-04-29T17:27:45.087Z,21.70
2023-04-29T17:30:12.523Z,22.27
2023-04-29T17:32:39.585Z,24.20
2023-04-29T17:35:14.534Z,23.00
2023-04-29T17:37:41.349Z,22.25
2023-04-29T17:40:08.545Z,22.45
2023-04-29T17:42:35.228Z,23.15
2023-04-29T17:45:01.942Z,22.23
2023-04-29T17:47:31.129Z,23.13
2023-04-29T17:50:00.262Z,22.67
2023-04-29T17:52:29.167Z,22.98
2023-04-29T17:54:58.361Z,23.23
2023-04-29T17:57:28.656Z,20.75
2023-04-29T17:59:55.554Z,19.40
2023-04-29T18:02:24.974Z,22.23
2023-04-29T18:04:51.722Z,19.58
2023-04-29T18:07:18.437Z,24.45
2023-04-29T18:09:47.607Z,18.67
2023-04-29T18:12:16.534Z,18.25
2023-04-29T18:14:43.207Z,19.23
2023-04-29T18:17:09.905Z,22.83
2023-04-29T18:19:38.725Z,19.88
2023-04-29T18:22:06.277Z,20.20
2023-04-29T18:24:32.970Z,18.15
2023-04-29T18:26:59.707Z,18.92
2023-04-29T18:29:26.443Z,20.33
2023-04-29T18:31:54.765Z,22.67
2023-04-29T18:34:23.847Z,18.40
2023-04-29T18:36:50.524Z,18.97
2023-04-29T18:39:21.974Z,20.40
2023-04-29T18:41:48.940Z,18.02
2023-04-29T18:44:20.254Z,21.25
2023-04-29T18:46:46.986Z,21.08
2023-04-29T18:49:16.963Z,20.20
2023-04-29T18:51:46.684Z,18.60
2023-04-29T18:54:18.591Z,19.83
2023-04-29T18:56:49.634Z,23.80
2023-04-29T18:59:19.306Z,21.13
2023-04-29T19:01:49.458Z,21.05
2023-04-29T19:06:43.662Z,20.85
2023-04-29T19:09:14.203Z,23.73
2023-04-29T19:11:40.968Z,25.23
2023-04-29T19:14:07.784Z,22.42
2023-04-29T19:16:37.456Z,26.05
2023-04-29T19:21:33.640Z,24.63
2023-04-29T19:24:00.607Z,22.42
2023-04-29T19:29:03.600Z,25.08
2023-04-29T19:31:34.066Z,24.13
2023-04-29T19:34:02.283Z,24.63
2023-04-29T19:36:31.292Z,23.70
2023-04-29T19:39:02.139Z,22.43
2023-04-29T19:41:34.582Z,26.38
2023-04-29T19:44:03.898Z,24.27
2023-04-29T19:46:30.700Z,26.40
2023-04-29T19:48:57.491Z,28.67
2023-04-29T19:51:24.567Z,25.65
2023-04-29T19:53:52.440Z,26.75
2023-04-29T19:56:20.008Z,28.95
2023-04-29T19:58:47.404Z,28.70
2023-04-29T20:01:16.805Z,27.90
2023-04-29T20:03:46.730Z,30.35
2023-04-29T20:08:43.144Z,32.95
2023-04-29T20:11:13.349Z,35.03
2023-04-29T20:13:42.708Z,30.98
2023-04-29T20:16:11.100Z,26.30
2023-04-29T20:18:38.335Z,28.20
2023-04-29T20:21:06.831Z,26.85
2023-04-29T20:23:36.417Z,26.25
2023-04-29T20:26:03.928Z,31.27
2023-04-29T20:28:31.027Z,30.02
2023-04-29T20:30:58.120Z,28.80
2023-04-29T20:33:25.445Z,24.52
2023-04-29T20:35:53.327Z,25.27
2023-04-29T20:38:21.929Z,27.30
2023-04-29T20:40:53.446Z,30.88
2023-04-29T20:43:20.717Z,26.77
2023-04-29T20:45:50.730Z,28.33
2023-04-29T20:48:17.965Z,27.50
2023-04-29T20:50:50.206Z,26.75
2023-04-29T20:53:17.304Z,28.90
2023-04-29T20:55:44.529Z,28.95
2023-04-29T20:58:11.823Z,30.10
2023-04-29T21:00:38.987Z,27.95
2023-04-29T21:03:06.097Z,28.33
2023-04-29T21:05:33.227Z,30.33
2023-04-29T21:08:02.555Z,27.67
2023-04-29T21:10:29.675Z,29.70
2023-04-29T21:12:56.930Z,29.83
2023-04-29T21:15:24.322Z,27.73
2023-04-29T21:17:51.446Z,32.20
2023-04-29T21:20:20.807Z,33.67
2023-04-29T21:22:56.116Z,27.23
2023-04-29T21:25:27.725Z,27.45
2023-04-29T21:27:58.355Z,31.58
2023-04-29T21:30:26.770Z,29.25
2023-04-29T21:32:54.857Z,28.77
2023-04-29T21:35:22.895Z,29.25
2023-04-29T21:37:53.164Z,28.10
2023-04-29T21:40:21.272Z,26.02
2023-04-29T21:42:52.081Z,33.38
2023-04-29T21:45:18.790Z,30.48
2023-04-29T21:47:45.516Z,30.23
2023-04-29T21:50:12.427Z,28.67
2023-04-29T21:52:39.311Z,27.38
2023-04-29T21:55:06.599Z,26.00
2023-04-29T21:57:43.660Z,26.95
2023-04-29T22:00:30.729Z,32.65
2023-04-29T22:02:57.578Z,29.13
2023-04-29T22:05:24.772Z,28.08
2023-04-29T22:07:51.541Z,28.27
2023-04-29T22:10:18.278Z,29.38
2023-04-29T22:12:47.524Z,26.98
2023-04-29T22:15:27.395Z,30.17
2023-04-29T22:17:55.909Z,27.20
2023-04-29T22:20:22.843Z,29.27
2023-04-29T22:22:54.339Z,29.33
2023-04-29T22:25:21.862Z,33.38
2023-04-29T22:27:51.974Z,28.85
2023-04-29T22:32:45.484Z,31.10
2023-04-29T22:35:12.348Z,30.50
2023-04-29T22:37:41.529Z,26.55
2023-04-29T22:40:11.905Z,29.27
2023-04-29T22:42:39.528Z,29.02
2023-04-29T22:45:08.985Z,30.58
2023-04-29T22:47:35.692Z,29.50
2023-04-29T22:50:02.394Z,32.70
2023-04-29T22:52:29.262Z,32.80
2023-04-29T22:54:58.569Z,32.50
2023-04-29T22:57:27.383Z,32.65
2023-04-29T22:59:55.384Z,32.58
2023-04-29T23:02:27.564Z,32.08
2023-04-29T23:04:55.858Z,27.77
2023-04-29T23:07:28.844Z,30.10
2023-04-29T23:09:55.920Z,30.88
2023-04-29T23:12:22.785Z,30.48
2023-04-29T23:14:50.919Z,31.27
2023-04-29T23:17:20.228Z,29.48
2023-04-29T23:19:46.900Z,34.38
2023-04-29T23:22:13.699Z,31.80
2023-04-29T23:24:40.428Z,31.60
2023-04-29T23:27:07.089Z,27.73
2023-04-29T23:29:36.202Z,34.55
2023-04-29T23:32:03.236Z,30.73
2023-04-29T23:34:29.917Z,34.22
2023-04-29T23:37:01.234Z,32.25
2023-04-29T23:39:30.290Z,33.25
2023-04-29T23:41:57.368Z,33.83
2023-04-29T23:44:25.150Z,31.45
2023-04-29T23:46:53.586Z,31.13
2023-04-29T23:49:22.895Z,34.67
2023-04-29T23:51:50.281Z,30.08
2023-04-29T23:54:17.606Z,34.78
2023-04-29T23:56:44.758Z,31.30
2023-04-29T23:59:11.813Z,34.45
